createdAt,value
2023-03-28T00:01:28.265Z,1.10
2023-03-28T00:03:57.163Z,0.80
2023-03-28T00:06:26.335Z,0.90
2023-03-28T00:08:53.943Z,1.20
2023-03-28T00:11:22.023Z,1.20
2023-03-28T00:13:53.719Z,0.93
2023-03-28T00:16:20.477Z,1.13
2023-03-28T00:18:47.491Z,1.08
2023-03-28T00:21:24.069Z,1.10
2023-03-28T00:23:56.134Z,1.10
2023-03-28T00:26:25.292Z,1.00
2023-03-28T00:28:52.474Z,0.93
2023-03-28T00:31:19.300Z,0.95
2023-03-28T00:33:47.641Z,1.00
2023-03-28T00:36:18.515Z,1.05
2023-03-28T00:38:46.071Z,1.23
2023-03-28T00:41:16.019Z,0.90
2023-03-28T00:43:45.408Z,1.08
2023-03-28T00:46:38.285Z,0.90
2023-03-28T00:49:12.288Z,1.00
2023-03-28T00:51:44.733Z,1.00
2023-03-28T00:54:15.802Z,1.00
2023-03-28T00:56:47.334Z,1.00
2023-03-28T00:59:18.824Z,0.90
2023-03-28T01:01:46.901Z,1.10
2023-03-28T01:04:20.458Z,1.17
2023-03-28T01:06:54.667Z,1.08
2023-03-28T01:09:24.128Z,1.13
2023-03-28T01:11:54.764Z,1.10
2023-03-28T01:14:24.172Z,1.10
2023-03-28T01:16:56.285Z,1.13
2023-03-28T01:19:58.892Z,0.85
2023-03-28T01:22:57.224Z,1.20
2023-03-28T01:25:47.793Z,0.80
2023-03-28T01:28:31.999Z,1.00
2023-03-28T01:31:29.845Z,1.05
2023-03-28T01:34:45.295Z,0.98
2023-03-28T01:37:14.948Z,1.00
2023-03-28T01:40:00.955Z,1.00
2023-03-28T01:43:01.945Z,1.05
2023-03-28T01:46:06.014Z,0.93
2023-03-28T01:48:43.444Z,1.00
2023-03-28T01:51:34.176Z,1.02
2023-03-28T01:54:05.869Z,0.80
2023-03-28T01:56:46.471Z,0.90
2023-03-28T01:59:22.117Z,0.90
2023-03-28T02:02:39.141Z,0.80
2023-03-28T02:05:22.442Z,0.82
2023-03-28T02:07:51.993Z,1.02
2023-03-28T02:10:25.335Z,0.70
2023-03-28T02:13:03.462Z,1.17
2023-03-28T02:15:59.470Z,0.80
2023-03-28T02:18:34.170Z,0.65
2023-03-28T02:21:25.376Z,0.80
2023-03-28T02:24:06.529Z,1.00
2023-03-28T02:26:54.306Z,0.90
2023-03-28T02:29:56.388Z,1.00
2023-03-28T02:32:35.823Z,1.00
2023-03-28T02:35:05.603Z,0.90
2023-03-28T02:37:51.953Z,0.95
2023-03-28T02:40:44.454Z,0.90
2023-03-28T02:43:32.530Z,0.80
2023-03-28T02:46:17.635Z,0.80
2023-03-28T02:49:06.273Z,1.08
2023-03-28T02:51:46.289Z,1.00
2023-03-28T02:54:31.598Z,0.70
2023-03-28T02:57:30.472Z,0.93
2023-03-28T03:00:11.529Z,1.20
2023-03-28T03:02:42.026Z,0.90
2023-03-28T03:05:09.755Z,1.10
2023-03-28T03:07:37.808Z,1.20
2023-03-28T03:10:07.392Z,0.80
2023-03-28T03:12:36.026Z,0.75
2023-03-28T03:15:05.180Z,0.90
2023-03-28T03:17:52.776Z,0.80
2023-03-28T03:20:32.875Z,0.77
2023-03-28T03:23:03.349Z,0.77
2023-03-28T03:25:33.549Z,0.80
2023-03-28T03:28:09.228Z,0.82
2023-03-28T03:30:35.941Z,0.98
2023-03-28T03:33:21.398Z,0.90
2023-03-28T03:35:53.563Z,0.88
2023-03-28T03:38:20.950Z,1.17
2023-03-28T03:40:47.569Z,1.30
2023-03-28T03:43:15.625Z,1.00
2023-03-28T03:45:45.932Z,0.80
2023-03-28T03:48:12.754Z,0.90
2023-03-28T03:50:40.588Z,1.05
2023-03-28T03:53:13.031Z,1.20
2023-03-28T03:55:48.039Z,1.10
2023-03-28T03:58:15.368Z,1.30
2023-03-28T04:00:44.717Z,1.23
2023-03-28T04:03:26.773Z,1.00
2023-03-28T04:05:55.142Z,1.10
2023-03-28T04:08:22.162Z,1.17
2023-03-28T04:10:49.626Z,1.80
2023-03-28T04:13:16.352Z,1.38
2023-03-28T04:15:47.562Z,0.95
2023-03-28T04:18:20.681Z,0.80
2023-03-28T04:20:56.185Z,0.80
2023-03-28T04:23:43.695Z,1.15
2023-03-28T04:26:55.755Z,1.45
2023-03-28T04:29:32.571Z,4.22
2023-03-28T04:32:26.933Z,3.07
2023-03-28T04:35:03.536Z,2.45
2023-03-28T04:37:30.454Z,2.00
2023-03-28T04:40:03.628Z,1.65
2023-03-28T04:42:47.497Z,1.73
2023-03-28T04:45:26.386Z,1.90
2023-03-28T04:47:54.489Z,1.40
2023-03-28T04:50:22.515Z,3.30
2023-03-28T04:52:49.312Z,3.35
2023-03-28T04:55:16.884Z,2.08
2023-03-28T04:57:44.994Z,2.20
2023-03-28T05:00:13.314Z,1.88
2023-03-28T05:03:02.211Z,2.58
2023-03-28T05:05:32.892Z,2.80
2023-03-28T05:07:59.553Z,2.78
2023-03-28T05:10:26.471Z,2.40
2023-03-28T05:12:58.570Z,3.08
2023-03-28T05:15:26.421Z,3.03
2023-03-28T05:18:12.896Z,4.07
2023-03-28T05:20:39.606Z,1.88
2023-03-28T05:23:06.526Z,1.43
2023-03-28T05:25:36.637Z,1.02
2023-03-28T05:28:04.421Z,1.10
2023-03-28T05:30:32.812Z,1.17
2023-03-28T05:33:00.906Z,1.20
2023-03-28T05:35:29.202Z,1.17
2023-03-28T05:37:56.086Z,1.20
2023-03-28T05:40:22.751Z,1.00
2023-03-28T05:42:49.698Z,1.60
2023-03-28T05:45:19.600Z,1.40
2023-03-28T05:48:07.010Z,1.00
2023-03-28T05:50:35.551Z,1.30
2023-03-28T05:53:05.472Z,0.90
2023-03-28T05:55:35.371Z,1.23
2023-03-28T05:58:03.187Z,1.20
2023-03-28T06:00:37.237Z,0.93
2023-03-28T06:03:04.656Z,1.58
2023-03-28T06:05:35.745Z,0.98
2023-03-28T06:08:06.680Z,1.10
2023-03-28T06:10:33.920Z,1.30
2023-03-28T06:13:15.276Z,1.20
2023-03-28T06:15:44.107Z,0.60
2023-03-28T06:18:10.885Z,1.30
2023-03-28T13:29:00.488Z,2.28
2023-03-28T13:31:27.319Z,1.30
2023-03-28T13:33:59.941Z,1.30
2023-03-28T13:36:29.342Z,1.23
2023-03-28T13:39:23.810Z,1.42
2023-03-28T13:41:50.381Z,1.38
2023-03-28T13:44:21.181Z,1.48
2023-03-28T13:46:49.715Z,1.08
2023-03-28T13:49:28.120Z,1.67
2023-03-28T13:52:04.624Z,1.30
2023-03-28T13:54:31.815Z,1.10
2023-03-28T13:57:08.387Z,1.23
2023-03-28T13:59:44.157Z,1.10
2023-03-28T14:02:18.516Z,1.10
2023-03-28T14:04:54.302Z,1.20
2023-03-28T14:07:28.324Z,1.30
2023-03-28T14:09:58.978Z,1.50
2023-03-28T14:12:29.381Z,1.27
2023-03-28T14:15:01.319Z,1.40
2023-03-28T14:17:32.780Z,1.10
2023-03-28T14:20:02.609Z,1.20
2023-03-28T14:22:31.421Z,1.30
2023-03-28T14:25:01.012Z,1.70
2023-03-28T14:27:41.342Z,1.33
2023-03-28T14:30:30.826Z,1.15
2023-03-28T14:33:00.550Z,1.00
2023-03-28T14:35:32.695Z,2.10
2023-03-28T14:38:02.736Z,2.92
2023-03-28T14:40:34.237Z,2.33
2023-03-28T14:43:10.772Z,2.00
2023-03-28T14:45:43.468Z,3.65
2023-03-28T14:48:19.704Z,3.78
2023-03-28T14:50:50.202Z,1.50
2023-03-28T14:53:22.581Z,1.27
2023-03-28T14:55:51.103Z,1.83
2023-03-28T14:58:19.146Z,2.90
2023-03-28T15:00:52.599Z,6.25
2023-03-28T15:03:23.001Z,8.55
2023-03-28T15:05:51.750Z,4.47
2023-03-28T15:08:31.650Z,2.47
2023-03-28T15:11:05.530Z,6.03
2023-03-28T15:13:34.352Z,5.95
2023-03-28T15:16:01.509Z,3.00
2023-03-28T15:18:33.477Z,3.10
2023-03-28T15:21:03.118Z,3.10
2023-03-28T15:23:34.750Z,2.05
2023-03-28T15:26:12.725Z,1.73
2023-03-28T15:28:40.392Z,1.52
2023-03-28T15:31:09.393Z,1.90
2023-03-28T15:33:36.312Z,1.50
2023-03-28T15:36:08.140Z,1.25
2023-03-28T15:38:39.785Z,1.60
2023-03-28T15:41:11.877Z,1.60
2023-03-28T15:43:41.418Z,1.60
2023-03-28T15:46:11.739Z,1.20
2023-03-28T15:48:40.793Z,1.10
2023-03-28T15:51:16.367Z,1.38
2023-03-28T15:53:45.812Z,1.83
2023-03-28T15:56:21.482Z,1.17
2023-03-28T15:58:48.183Z,1.50
2023-03-28T16:01:18.051Z,1.60
2023-03-28T16:03:45.040Z,1.50
2023-03-28T16:06:30.765Z,1.55
2023-03-28T16:09:22.086Z,1.20
2023-03-28T16:12:03.175Z,1.40
2023-03-28T16:14:45.917Z,1.75
2023-03-28T16:17:33.428Z,1.30
2023-03-28T16:20:18.126Z,1.50
2023-03-28T16:22:45.901Z,1.48
2023-03-28T16:25:12.793Z,1.50
2023-03-28T16:27:40.265Z,1.27
2023-03-28T16:30:18.056Z,1.45
2023-03-28T16:32:44.963Z,1.40
2023-03-28T16:35:11.906Z,1.92
2023-03-28T16:37:38.529Z,1.70
2023-03-28T16:40:05.778Z,1.35
2023-03-28T16:42:32.401Z,1.10
2023-03-28T16:44:59.831Z,1.73
2023-03-28T16:47:29.056Z,1.63
2023-03-28T16:49:55.857Z,3.33
2023-03-28T16:52:22.431Z,8.82
2023-03-28T16:54:49.115Z,20.00
2023-03-28T16:57:15.809Z,25.05
2023-03-28T16:59:42.447Z,7.05
2023-03-28T17:02:10.699Z,4.85
2023-03-28T17:04:37.436Z,10.85
2023-03-28T17:07:04.117Z,3.80
2023-03-28T17:09:32.776Z,2.10
2023-03-28T17:11:59.341Z,1.50
2023-03-28T17:14:25.989Z,1.30
2023-03-28T17:16:52.701Z,2.95
2023-03-28T17:19:23.125Z,1.85
2023-03-28T17:21:50.634Z,2.35
2023-03-28T17:24:18.100Z,2.00
2023-03-28T17:26:44.773Z,1.50
2023-03-28T17:29:12.022Z,1.27
2023-03-28T17:31:38.901Z,2.50
2023-03-28T17:34:05.536Z,1.90
2023-03-28T17:36:32.724Z,1.65
2023-03-28T17:38:59.438Z,1.70
2023-03-28T17:41:27.858Z,1.30
2023-03-28T17:43:56.550Z,1.50
2023-03-28T17:46:24.318Z,1.70
2023-03-28T17:48:50.950Z,2.40
2023-03-28T17:51:17.664Z,2.30
2023-03-28T17:53:46.547Z,2.85
2023-03-28T17:56:14.536Z,2.38
2023-03-28T17:58:42.213Z,3.35
2023-03-28T18:01:14.710Z,1.95
2023-03-28T18:03:41.627Z,1.98
2023-03-28T18:06:25.634Z,2.25
2023-03-28T18:08:52.252Z,8.20
2023-03-28T18:11:20.084Z,19.58
2023-03-28T18:13:46.829Z,14.02
2023-03-28T18:16:15.590Z,6.93
2023-03-28T18:18:42.370Z,6.82
2023-03-28T18:21:11.271Z,13.20
2023-03-28T18:23:38.352Z,11.40
2023-03-28T18:26:06.724Z,12.00
2023-03-28T18:28:36.675Z,10.43
2023-03-28T18:31:21.052Z,3.85
2023-03-28T18:33:47.643Z,2.95
2023-03-28T18:36:16.711Z,3.10
2023-03-28T18:38:47.843Z,2.35
2023-03-28T18:41:14.581Z,2.10
2023-03-28T18:43:42.571Z,2.67
2023-03-28T18:46:15.446Z,2.00
2023-03-28T18:48:43.035Z,1.85
2023-03-28T18:51:10.403Z,2.20
2023-03-28T18:53:37.887Z,1.73
2023-03-28T18:56:09.495Z,1.77
2023-03-28T18:58:39.274Z,2.17
2023-03-28T19:01:08.859Z,1.90
2023-03-28T19:03:41.709Z,2.10
2023-03-28T19:06:11.582Z,2.05
2023-03-28T19:08:38.371Z,2.30
2023-03-28T19:11:12.509Z,2.00
2023-03-28T19:13:41.041Z,2.08
2023-03-28T19:16:10.615Z,2.20
2023-03-28T19:18:38.758Z,2.40
2023-03-28T19:21:06.965Z,2.00
2023-03-28T19:23:34.018Z,2.03
2023-03-28T19:26:00.873Z,2.10
2023-03-28T19:28:27.570Z,2.00
2023-03-28T19:31:00.115Z,2.45
2023-03-28T19:33:27.774Z,2.50
2023-03-28T19:35:54.777Z,2.47
2023-03-28T19:38:22.969Z,2.70
2023-03-28T19:40:49.642Z,2.50
2023-03-28T19:43:20.938Z,2.20
2023-03-28T19:45:48.301Z,2.08
2023-03-28T19:48:15.785Z,2.30
2023-03-28T19:50:43.038Z,2.30
2023-03-28T19:53:10.597Z,2.88
2023-03-28T19:55:37.408Z,2.20
2023-03-28T19:58:08.635Z,2.50
2023-03-28T20:00:35.792Z,2.60
2023-03-28T20:03:03.141Z,2.05
2023-03-28T20:05:29.966Z,2.35
2023-03-28T20:07:56.543Z,2.25
2023-03-28T20:10:23.246Z,2.38
2023-03-28T20:12:49.819Z,2.20
2023-03-28T20:15:16.747Z,2.55
2023-03-28T20:17:43.317Z,1.98
2023-03-28T20:20:10.502Z,2.80
2023-03-28T20:22:37.898Z,2.40
2023-03-28T20:25:04.918Z,2.38
2023-03-28T20:27:32.062Z,2.67
2023-03-28T20:29:58.945Z,2.08
2023-03-28T20:32:25.817Z,2.13
2023-03-28T20:34:52.463Z,2.35
2023-03-28T20:37:20.098Z,2.22
2023-03-28T20:39:48.184Z,2.30
2023-03-28T20:42:14.934Z,2.30
2023-03-28T20:44:41.652Z,2.00
2023-03-28T20:47:10.606Z,2.53
2023-03-28T20:49:38.441Z,2.53
2023-03-28T20:52:07.900Z,2.78
2023-03-28T20:54:35.165Z,2.35
2023-03-28T20:57:02.217Z,2.88
2023-03-28T20:59:28.915Z,2.65
2023-03-28T21:01:56.056Z,2.28
2023-03-28T21:04:23.022Z,2.25
2023-03-28T21:06:50.220Z,2.20
2023-03-28T21:09:18.119Z,2.83
2023-03-28T21:11:45.390Z,2.15
2023-03-28T21:14:13.585Z,2.72
2023-03-28T21:16:41.038Z,3.03
2023-03-28T21:19:08.104Z,2.33
2023-03-28T21:21:35.100Z,2.13
2023-03-28T21:24:02.931Z,2.30
2023-03-28T21:26:30.042Z,2.20
2023-03-28T21:28:56.780Z,2.08
2023-03-28T21:31:26.469Z,1.90
2023-03-28T21:33:58.011Z,2.45
2023-03-28T21:36:25.504Z,2.42
2023-03-28T21:38:52.949Z,2.00
2023-03-28T21:41:19.711Z,2.15
2023-03-28T21:43:47.657Z,2.00
2023-03-28T21:46:15.304Z,2.22
2023-03-28T21:48:44.520Z,2.28
2023-03-28T21:51:11.942Z,2.20
2023-03-28T21:53:39.548Z,2.00
2023-03-28T21:56:07.008Z,2.45
2023-03-28T21:58:34.439Z,2.40
2023-03-28T22:01:02.816Z,2.35
2023-03-28T22:03:30.660Z,2.67
2023-03-28T22:05:57.543Z,2.28
2023-03-28T22:08:24.267Z,2.20
2023-03-28T22:10:58.665Z,2.50
2023-03-28T22:13:25.646Z,2.25
2023-03-28T22:15:52.848Z,1.95
2023-03-28T22:18:20.547Z,1.85
2023-03-28T22:20:53.127Z,2.00
2023-03-28T22:23:23.979Z,2.22
2023-03-28T22:25:51.082Z,1.90
2023-03-28T22:28:18.864Z,2.17
2023-03-28T22:30:45.554Z,2.05
2023-03-28T22:33:13.479Z,2.00
2023-03-28T22:35:40.113Z,1.98
2023-03-28T22:38:06.870Z,2.53
2023-03-28T22:40:34.284Z,2.00
2023-03-28T22:43:01.412Z,1.55
2023-03-28T22:45:28.563Z,2.00
2023-03-28T22:47:58.318Z,1.50
2023-03-28T22:50:25.981Z,1.80
2023-03-28T22:52:53.216Z,1.90
2023-03-28T22:55:22.908Z,1.95
2023-03-28T22:57:51.639Z,1.77
2023-03-28T23:00:22.936Z,1.75
2023-03-28T23:02:53.304Z,1.77
2023-03-28T23:05:20.365Z,1.83
2023-03-28T23:07:47.422Z,1.98
2023-03-28T23:10:17.697Z,1.40
2023-03-28T23:12:45.404Z,1.60
2023-03-28T23:15:12.472Z,1.70
2023-03-28T23:17:39.814Z,1.80
2023-03-28T23:20:12.353Z,1.45
2023-03-28T23:22:43.729Z,2.05
2023-03-28T23:25:14.941Z,2.08
2023-03-28T23:27:43.068Z,1.75
2023-03-28T23:30:12.052Z,1.67
2023-03-28T23:32:38.964Z,1.88
2023-03-28T23:35:06.571Z,1.60
2023-03-28T23:37:34.587Z,2.10
2023-03-28T23:40:01.423Z,1.75
2023-03-28T23:42:28.115Z,1.67
2023-03-28T23:44:54.761Z,1.65
2023-03-28T23:47:21.494Z,1.70
2023-03-28T23:49:48.081Z,1.60
2023-03-28T23:52:16.319Z,2.20
2023-03-28T23:54:44.185Z,1.92
2023-03-28T23:57:10.958Z,1.40
2023-03-28T23:59:37.561Z,2.20
